Golden Trader I — DUEA — position and weather

sailwx.info

Track history (hours):
 
Tides and Currents Weather Stations Pressure Air Temp Water Temp Dewpoint Dewpoint Depression Visibility Wind Speed Wind Dir Waves Ship Positions

Golden Trader I

Last reported at 2017-Oct-20 19:30 UTC. Time now 2017-Oct-20 19:33 UTC.
Position N 44°43' E 037°49'.

Length 229 m; draft 7.5 m.

Type: Cargo ship. MMSI: 548855000.

Date/timePositionNaut miles runAvg speedWind from/ knotsBaromVisibWave heightAir tempDewpointWater temp
2017-Oct-20 19:30N 44°43' E 037°49'0 0.0
2017-Oct-20 19:00N 44°43' E 037°49'0 0.0
2017-Oct-20 18:30N 44°43' E 037°49'0 0.0
2017-Oct-20 18:00N 44°43' E 037°49'0 0.0
2017-Oct-20 17:30N 44°43' E 037°49'0 0.0
2017-Oct-20 17:00N 44°43' E 037°49'0 0.0
2017-Oct-20 16:30N 44°43' E 037°49'1 1.5
2017-Oct-20 16:00N 44°43' E 037°49'4 7.6
2017-Oct-20 15:30N 44°39' E 037°51'2 3.7
2017-Oct-20 15:00N 44°37' E 037°52'1 1.7
2017-Oct-20 14:30N 44°36' E 037°52'3 3.4
2017-Oct-20 13:28N 44°34' E 037°55'0 0.0
2017-Oct-20 12:58N 44°34' E 037°55'0 0.0
2017-Oct-20 12:28N 44°34' E 037°55'0 0.0
2017-Oct-20 11:55N 44°34' E 037°55'0 0.1
2017-Oct-20 11:22N 44°34' E 037°55'0 0.1
2017-Oct-20 10:55N 44°34' E 037°55'0 0.0
2017-Oct-20 10:25N 44°34' E 037°55'0 0.0
2017-Oct-20 09:58N 44°34' E 037°55'0 0.0
2017-Oct-20 09:28N 44°34' E 037°55'0 0.1
2017-Oct-20 08:58N 44°34' E 037°55'0 0.0
2017-Oct-20 08:28N 44°34' E 037°55'0 0.0
2017-Oct-20 07:58N 44°34' E 037°55'0 0.0
2017-Oct-20 07:28N 44°34' E 037°55'0 0.0
2017-Oct-20 06:58N 44°34' E 037°55'0 0.0
2017-Oct-20 06:28N 44°34' E 037°55'0 0.0
2017-Oct-20 05:58N 44°34' E 037°55'0 0.0
2017-Oct-20 05:28N 44°34' E 037°55'0 0.0
2017-Oct-20 04:58N 44°34' E 037°55'0 0.0
2017-Oct-20 04:28N 44°34' E 037°55'0 0.0
2017-Oct-20 03:58N 44°34' E 037°55'0 0.0
2017-Oct-20 03:28N 44°34' E 037°55'0 0.0
2017-Oct-20 02:52N 44°34' E 037°55'0 0.1
2017-Oct-20 02:28N 44°34' E 037°55'0 0.0
2017-Oct-20 01:52N 44°34' E 037°55'0 0.0
2017-Oct-20 01:28N 44°34' E 037°55'0 0.0
2017-Oct-20 00:58N 44°34' E 037°55'0 0.0
2017-Oct-20 00:28N 44°34' E 037°55'0 0.0
2017-Oct-19 23:58N 44°34' E 037°55'0 0.0
2017-Oct-19 23:28N 44°34' E 037°55'0 0.0
2017-Oct-19 22:58N 44°34' E 037°55'0 0.0
2017-Oct-19 22:25N 44°34' E 037°55'0 0.0
2017-Oct-19 21:58N 44°34' E 037°55'0 0.0
2017-Oct-19 21:28N 44°34' E 037°55'0 0.0
2017-Oct-19 20:58N 44°34' E 037°55'0 0.0
2017-Oct-19 20:28N 44°34' E 037°55'0 0.0
2017-Oct-19 19:58N 44°34' E 037°55'0 0.0
2017-Oct-19 19:28N 44°34' E 037°55'0 0.0
2017-Oct-19 18:58N 44°34' E 037°55'0 0.0
2017-Oct-19 18:28N 44°34' E 037°55'0 0.0
2017-Oct-19 17:58N 44°34' E 037°55'0 0.0
2017-Oct-19 17:28N 44°34' E 037°55'0 0.0
2017-Oct-19 16:55N 44°34' E 037°55'0 0.0
2017-Oct-19 16:28N 44°34' E 037°55'0 0.0
2017-Oct-19 15:52N 44°34' E 037°55'0 0.0
2017-Oct-19 15:28N 44°34' E 037°55'0 0.0
2017-Oct-19 14:58N 44°34' E 037°55'0 0.1
2017-Oct-19 14:28N 44°34' E 037°55'0 0.0
2017-Oct-19 13:58N 44°34' E 037°55'0 0.0
2017-Oct-19 13:28N 44°34' E 037°55'0 0.0
2017-Oct-19 12:58N 44°34' E 037°55'0 0.0
2017-Oct-19 12:28N 44°34' E 037°55'0 0.0
2017-Oct-19 11:58N 44°34' E 037°55'0 0.0
2017-Oct-19 11:28N 44°34' E 037°55'0 0.0
2017-Oct-19 10:58N 44°34' E 037°55'0 0.0
2017-Oct-19 10:28N 44°34' E 037°55'0 0.0
2017-Oct-19 09:55N 44°34' E 037°55'0 0.0
2017-Oct-19 09:28N 44°34' E 037°55'0 0.0
2017-Oct-19 08:58N 44°34' E 037°55'0 0.0
2017-Oct-19 08:28N 44°34' E 037°55'0 0.0
2017-Oct-19 07:58N 44°34' E 037°55'0 0.0
2017-Oct-19 07:28N 44°34' E 037°55'0 0.0
2017-Oct-19 06:58N 44°34' E 037°55'0 0.0
2017-Oct-19 06:28N 44°34' E 037°55'0 0.0
2017-Oct-19 05:58N 44°34' E 037°55'0 0.0
2017-Oct-19 05:28N 44°34' E 037°55'0 0.0
2017-Oct-19 04:58N 44°34' E 037°55'0 0.0
2017-Oct-19 04:28N 44°34' E 037°55'0 0.0
2017-Oct-19 03:28N 44°34' E 037°55'0 0.0
2017-Oct-19 02:58N 44°34' E 037°55'0 0.0
2017-Oct-19 02:28N 44°34' E 037°55'0 0.0
2017-Oct-19 01:58N 44°34' E 037°55'0 0.0
2017-Oct-19 01:28N 44°34' E 037°55'0 0.0
2017-Oct-19 00:58N 44°34' E 037°55'0 0.0
2017-Oct-19 00:28N 44°34' E 037°55'0 0.0
2017-Oct-18 23:25N 44°34' E 037°55'0 0.0
2017-Oct-18 22:58N 44°34' E 037°55'0 0.0
2017-Oct-18 22:28N 44°34' E 037°55'0 0.0
2017-Oct-18 21:58N 44°34' E 037°55'0 0.0
2017-Oct-18 21:28N 44°34' E 037°55'0 0.0
2017-Oct-18 20:55N 44°34' E 037°55'0 0.0
2017-Oct-18 20:28N 44°34' E 037°55'0 0.0
2017-Oct-18 19:58N 44°34' E 037°55'0 0.0
2017-Oct-18 19:28N 44°34' E 037°55'0 0.1
2017-Oct-18 18:58N 44°34' E 037°55'0 0.0
2017-Oct-18 18:25N 44°34' E 037°55'0 0.0
2017-Oct-18 17:58N 44°34' E 037°55'0 0.0
2017-Oct-18 17:28N 44°34' E 037°55'0 0.0
2017-Oct-18 16:58N 44°34' E 037°55'0 0.0
2017-Oct-18 16:28N 44°34' E 037°55'0 0.0
2017-Oct-18 15:58N 44°34' E 037°55'0 0.1
2017-Oct-18 15:28N 44°34' E 037°55'0 0.0
2017-Oct-18 13:58N 44°34' E 037°55'0 0.0
2017-Oct-18 13:28N 44°34' E 037°55'0 0.0
2017-Oct-18 12:58N 44°34' E 037°55'0 0.0
2017-Oct-18 12:28N 44°34' E 037°55'0 0.0
2017-Oct-18 11:58N 44°34' E 037°55'0 0.0
2017-Oct-18 11:28N 44°34' E 037°55'0 0.0
2017-Oct-18 10:58N 44°34' E 037°55'0 0.0
2017-Oct-18 10:28N 44°34' E 037°55'0 0.0
2017-Oct-18 09:58N 44°34' E 037°55'0 0.0
2017-Oct-18 09:28N 44°34' E 037°55'0 0.0
2017-Oct-18 08:58N 44°34' E 037°55'0 0.0
2017-Oct-18 08:28N 44°34' E 037°55'0 0.1
2017-Oct-18 07:58N 44°34' E 037°55'0 0.0
2017-Oct-18 07:28N 44°34' E 037°55'0 0.0
2017-Oct-18 06:58N 44°34' E 037°55'0 0.0
2017-Oct-18 06:28N 44°34' E 037°55'0 0.0
2017-Oct-18 05:55N 44°34' E 037°55'0 0.0
2017-Oct-18 05:28N 44°34' E 037°55'0 0.0
2017-Oct-18 04:58N 44°34' E 037°55'0 0.1
2017-Oct-18 04:28N 44°34' E 037°55'0 0.1
2017-Oct-18 03:58N 44°34' E 037°55'0 0.0
2017-Oct-18 03:28N 44°34' E 037°55'0 0.0
2017-Oct-18 02:58N 44°34' E 037°55'0 0.0
2017-Oct-18 02:28N 44°34' E 037°55'0 0.0
2017-Oct-18 01:58N 44°34' E 037°55'0 0.1
2017-Oct-18 01:28N 44°34' E 037°55'0 0.0
2017-Oct-18 00:58N 44°34' E 037°55'0 0.1
2017-Oct-18 00:28N 44°34' E 037°55'0 0.1
2017-Oct-17 23:58N 44°34' E 037°55'0 0.0
2017-Oct-17 23:28N 44°34' E 037°55'0 0.0
2017-Oct-17 22:58N 44°34' E 037°55'0 0.1
2017-Oct-17 22:28N 44°34' E 037°55'0 0.1
2017-Oct-17 21:58N 44°34' E 037°55'0 0.1
2017-Oct-17 21:28N 44°34' E 037°55'0 0.0
2017-Oct-17 20:58N 44°34' E 037°55'0 0.0
2017-Oct-17 20:28N 44°34' E 037°55'0 0.0
2017-Oct-17 19:58N 44°34' E 037°55'0 0.1
2017-Oct-17 19:28N 44°34' E 037°55'0 0.0
2017-Oct-17 18:58N 44°34' E 037°55'0 0.0
2017-Oct-17 18:28N 44°34' E 037°55'0 0.0
2017-Oct-17 17:58N 44°34' E 037°55'0 0.0
2017-Oct-17 17:28N 44°34' E 037°55'0 0.0
2017-Oct-17 16:58N 44°34' E 037°55'0 0.1
2017-Oct-17 16:28N 44°34' E 037°55'0 0.1
2017-Oct-17 15:58N 44°34' E 037°55'0 0.1
2017-Oct-17 15:28N 44°34' E 037°55'0 0.0
2017-Oct-17 14:58N 44°34' E 037°55'0 0.0
2017-Oct-17 14:28N 44°34' E 037°55'0 0.0
2017-Oct-17 13:58N 44°34' E 037°55'0 0.0
2017-Oct-17 13:28N 44°34' E 037°55'0 0.0
2017-Oct-17 12:58N 44°34' E 037°55'0 0.0
2017-Oct-17 12:28N 44°34' E 037°55'0 0.0
2017-Oct-17 11:58N 44°34' E 037°55'0 0.1
2017-Oct-17 11:28N 44°34' E 037°55'0 0.0
2017-Oct-17 10:58N 44°34' E 037°55'0 0.1
2017-Oct-17 10:28N 44°34' E 037°55'0 0.0
2017-Oct-17 09:58N 44°34' E 037°55'0 0.0
2017-Oct-17 09:28N 44°34' E 037°55'0 0.1
2017-Oct-17 08:58N 44°34' E 037°55'0 0.1
2017-Oct-17 08:28N 44°33' E 037°55'0 0.0
2017-Oct-17 07:58N 44°33' E 037°55'0 0.1
2017-Oct-17 07:28N 44°34' E 037°55'0 0.0
2017-Oct-17 06:58N 44°34' E 037°55'0 0.0
2017-Oct-17 06:28N 44°34' E 037°55'0 0.0
2017-Oct-17 05:58N 44°34' E 037°55'0 0.0
2017-Oct-17 05:28N 44°34' E 037°55'0 0.0
2017-Oct-17 04:58N 44°34' E 037°55'0 0.0
2017-Oct-17 04:28N 44°34' E 037°55'0 0.0
2017-Oct-17 03:58N 44°34' E 037°55'0 0.1
2017-Oct-17 03:16N 44°34' E 037°55'0 0.1
2017-Oct-17 02:58N 44°34' E 037°55'0 0.0
2017-Oct-17 02:28N 44°34' E 037°55'0 0.0
2017-Oct-17 01:58N 44°34' E 037°55'0 0.0
2017-Oct-17 01:28N 44°34' E 037°55'0 0.1
2017-Oct-17 00:58N 44°33' E 037°55'0 0.0
2017-Oct-17 00:28N 44°33' E 037°55'0 0.0
2017-Oct-16 23:58N 44°34' E 037°55'0 0.0
2017-Oct-16 23:28N 44°34' E 037°55'0 0.0
2017-Oct-16 22:58N 44°34' E 037°55'0 0.0
2017-Oct-16 22:28N 44°34' E 037°55'0 0.1
2017-Oct-16 21:58N 44°34' E 037°55'0 0.0
2017-Oct-16 21:28N 44°34' E 037°55'0 0.0
2017-Oct-16 20:58N 44°34' E 037°55'0 0.0
2017-Oct-16 20:28N 44°34' E 037°55'0 0.0
2017-Oct-16 19:55N 44°34' E 037°55'0 0.0
2017-Oct-16 19:28N 44°34' E 037°55'0 0.0
2017-Oct-16 18:58N 44°34' E 037°55'0 0.0
2017-Oct-16 18:07N 44°34' E 037°55'0 0.1
2017-Oct-16 17:58N 44°34' E 037°55'0 0.0
2017-Oct-16 17:28N 44°34' E 037°55'0 0.0
2017-Oct-16 16:58N 44°33' E 037°55'0 0.0
2017-Oct-16 16:28N 44°34' E 037°55'0 0.0
2017-Oct-16 15:58N 44°34' E 037°55'0 0.1
2017-Oct-16 15:28N 44°33' E 037°55'0 0.0
2017-Oct-16 14:58N 44°33' E 037°55'0 0.0
2017-Oct-16 14:28N 44°33' E 037°55'0 0.0
2017-Oct-16 13:28N 44°33' E 037°55'0 0.0
2017-Oct-16 12:58N 44°33' E 037°55'0 0.0
2017-Oct-16 12:28N 44°33' E 037°55'0 0.0
2017-Oct-16 11:58N 44°33' E 037°55'0 0.1
2017-Oct-16 11:28N 44°33' E 037°55'0 0.1
2017-Oct-16 10:58N 44°33' E 037°55'0 0.0
2017-Oct-16 10:28N 44°33' E 037°55'0 0.0
2017-Oct-16 09:58N 44°33' E 037°55'0 0.0
2017-Oct-16 09:28N 44°33' E 037°55'0 0.1
2017-Oct-16 08:58N 44°33' E 037°55'0 0.1
2017-Oct-16 08:28N 44°33' E 037°55'0 0.1
2017-Oct-16 07:58N 44°33' E 037°55'0 0.0
2017-Oct-16 07:28N 44°33' E 037°55'0 0.0
2017-Oct-16 06:58N 44°33' E 037°55'0 0.1
2017-Oct-16 06:28N 44°33' E 037°55'0 0.0
2017-Oct-16 05:58N 44°33' E 037°55'0 0.0
2017-Oct-16 05:28N 44°33' E 037°55'0 0.1
2017-Oct-16 04:58N 44°33' E 037°55'0 0.0
2017-Oct-16 04:28N 44°33' E 037°55'0 0.0
2017-Oct-16 03:58N 44°33' E 037°55'0 0.0
2017-Oct-16 03:28N 44°33' E 037°55'0 0.0
2017-Oct-16 02:58N 44°33' E 037°55'0 0.0
2017-Oct-16 02:28N 44°33' E 037°55'0 0.0
2017-Oct-16 01:58N 44°33' E 037°55'0 0.1
2017-Oct-16 01:28N 44°33' E 037°55'0 0.0
2017-Oct-16 00:58N 44°33' E 037°55'0 0.1
2017-Oct-16 00:28N 44°33' E 037°55'0 0.1
2017-Oct-15 23:55N 44°34' E 037°55'0 0.1
2017-Oct-15 23:28N 44°33' E 037°55'0 0.0
2017-Oct-15 22:58N 44°34' E 037°55'0 0.1
2017-Oct-15 22:28N 44°34' E 037°55'0 0.1
2017-Oct-15 21:58N 44°34' E 037°55'0 0.1
2017-Oct-15 21:25N 44°34' E 037°55'0 0.0
2017-Oct-15 20:58N 44°34' E 037°55'0 0.1
2017-Oct-15 20:25N 44°34' E 037°55'0 0.0
2017-Oct-15 19:55N 44°34' E 037°55'0 0.1
2017-Oct-15 19:28N 44°34' E 037°55'0 0.0
2017-Oct-15 18:58N 44°34' E 037°55'0 0.0
2017-Oct-15 18:28N 44°34' E 037°55'0 0.1
2017-Oct-15 17:58N 44°34' E 037°55'0 0.0
2017-Oct-15 17:28N 44°34' E 037°55'0 0.1
2017-Oct-15 16:58N 44°34' E 037°55'0 0.0
2017-Oct-15 16:28N 44°34' E 037°55'0 0.1
2017-Oct-15 15:58N 44°34' E 037°55'0 0.1
2017-Oct-15 15:28N 44°34' E 037°55'0 0.1
2017-Oct-15 14:58N 44°34' E 037°55'0 0.0
2017-Oct-15 13:58N 44°34' E 037°55'0 0.1
2017-Oct-15 13:28N 44°34' E 037°55'0 0.0
2017-Oct-15 12:58N 44°34' E 037°55'0 0.0
2017-Oct-15 12:28N 44°34' E 037°55'0 0.0
2017-Oct-15 11:58N 44°34' E 037°55'0 0.0
2017-Oct-15 11:28N 44°34' E 037°55'0 0.0
2017-Oct-15 10:58N 44°34' E 037°55'0 0.1
2017-Oct-15 10:28N 44°34' E 037°55'0 0.0
2017-Oct-15 09:58N 44°34' E 037°55'0 0.0
2017-Oct-15 09:28N 44°34' E 037°55'0 0.1
2017-Oct-15 08:58N 44°33' E 037°55'0 0.0
2017-Oct-15 08:28N 44°33' E 037°55'0 0.0
2017-Oct-15 07:58N 44°33' E 037°55'0 0.0
2017-Oct-15 07:28N 44°33' E 037°55'0 0.0
2017-Oct-15 06:58N 44°33' E 037°55'0 0.0
2017-Oct-15 06:28N 44°33' E 037°55'0 0.0
2017-Oct-15 05:58N 44°33' E 037°55'0 0.1
2017-Oct-15 05:28N 44°33' E 037°55'0 0.0
2017-Oct-15 04:58N 44°33' E 037°55'0 0.0
2017-Oct-15 04:28N 44°33' E 037°55'0 0.0
2017-Oct-15 03:58N 44°33' E 037°55'0 0.0
2017-Oct-15 03:28N 44°33' E 037°55'0 0.0
2017-Oct-15 02:58N 44°33' E 037°55'0 0.1
2017-Oct-15 02:31N 44°33' E 037°55'0 0.0
2017-Oct-15 01:58N 44°33' E 037°55'0 0.1
2017-Oct-15 01:28N 44°33' E 037°55'0 0.1
2017-Oct-15 00:58N 44°34' E 037°55'0 0.0
2017-Oct-15 00:28N 44°34' E 037°55'0 0.1
2017-Oct-14 23:58N 44°33' E 037°55'0 0.1
2017-Oct-14 23:28N 44°34' E 037°55'0 0.0
2017-Oct-14 23:01N 44°34' E 037°55'0 0.0
2017-Oct-14 22:28N 44°34' E 037°55'0 0.0
2017-Oct-14 21:58N 44°34' E 037°55'0 0.0
2017-Oct-14 21:25N 44°34' E 037°55'0 0.1
2017-Oct-14 20:46N 44°34' E 037°55'0 0.0
2017-Oct-14 20:28N 44°34' E 037°55'0 0.0
2017-Oct-14 19:54N 44°34' E 037°55'0 0.1
2017-Oct-14 19:25N 44°34' E 037°55'0 0.1
2017-Oct-14 18:58N 44°34' E 037°55'0 0.1
2017-Oct-14 18:28N 44°34' E 037°55'0 0.1
2017-Oct-14 17:58N 44°34' E 037°55'0 0.0
2017-Oct-14 17:28N 44°34' E 037°55'0 0.0
2017-Oct-14 16:57N 44°34' E 037°55'0 0.0
2017-Oct-14 16:28N 44°34' E 037°55'0 0.0
2017-Oct-14 15:57N 44°34' E 037°55'0 0.1
2017-Oct-14 15:28N 44°33' E 037°55'0 0.0
2017-Oct-14 15:01N 44°33' E 037°55'0 0.1
2017-Oct-14 14:28N 44°34' E 037°55'0 0.0
2017-Oct-14 14:00N 44°34' E 037°55'0 0.0
2017-Oct-14 13:31N 44°34' E 037°55'0 0.0
2017-Oct-14 12:58N 44°34' E 037°55'0 0.1
2017-Oct-14 12:25N 44°34' E 037°55'0 0.1
2017-Oct-14 12:01N 44°34' E 037°55'0 0.0
2017-Oct-14 11:31N 44°34' E 037°55'0 0.0
2017-Oct-14 10:57N 44°34' E 037°55'0 0.0
2017-Oct-14 10:28N 44°34' E 037°55'0 0.0
2017-Oct-14 10:01N 44°34' E 037°55'0 0.0
2017-Oct-14 09:28N 44°34' E 037°55'0 0.0
2017-Oct-14 08:57N 44°34' E 037°55'0 0.0
2017-Oct-14 08:30N 44°34' E 037°55'0 0.1
2017-Oct-14 07:58N 44°34' E 037°55'0 0.2
2017-Oct-14 07:30N 44°34' E 037°55'0 0.0
2017-Oct-14 06:57N 44°34' E 037°55'0 0.0
2017-Oct-14 06:31N 44°34' E 037°55'0 0.1
2017-Oct-14 06:01N 44°34' E 037°55'0 0.0
2017-Oct-14 05:28N 44°34' E 037°55'0 0.1
2017-Oct-14 05:01N 44°34' E 037°55'0 0.0
2017-Oct-14 04:30N 44°34' E 037°55'0 0.0
2017-Oct-14 04:00N 44°34' E 037°55'0 0.0
2017-Oct-14 03:30N 44°34' E 037°55'0 0.2
2017-Oct-14 03:00N 44°34' E 037°55'0 0.1
2017-Oct-14 02:27N 44°34' E 037°55'0 0.1
2017-Oct-14 02:00N 44°34' E 037°55'0 0.1
2017-Oct-14 01:27N 44°34' E 037°55'0 0.1
2017-Oct-14 01:00N 44°34' E 037°55'0 0.1
2017-Oct-14 00:30N 44°34' E 037°55'0 0.0
2017-Oct-14 00:00N 44°34' E 037°55'0 0.0
2017-Oct-13 23:31N 44°34' E 037°55'0 0.1
2017-Oct-13 23:00N 44°34' E 037°55'0 0.0
2017-Oct-13 22:30N 44°34' E 037°55'0 0.1
2017-Oct-13 22:00N 44°34' E 037°55'0 0.1
2017-Oct-13 21:30N 44°34' E 037°55'0 0.1
2017-Oct-13 21:00N 44°34' E 037°55'0 0.0
2017-Oct-13 20:30N 44°34' E 037°55'0 0.0
2017-Oct-13 20:00N 44°34' E 037°55'0 0.1
2017-Oct-13 19:30N 44°34' E 037°55'0 0.0
2017-Oct-13 19:00N 44°34' E 037°55'0 0.0
2017-Oct-13 18:30N 44°34' E 037°55'0 0.0
2017-Oct-13 18:00N 44°34' E 037°55'0 0.0
2017-Oct-13 17:30N 44°34' E 037°55'0 0.0
2017-Oct-13 16:27N 44°34' E 037°55'0 0.0
2017-Oct-13 16:00N 44°34' E 037°55'0 0.0
2017-Oct-13 15:30N 44°34' E 037°55'0 0.0
2017-Oct-13 15:00N 44°34' E 037°55'0 0.0
2017-Oct-13 14:30N 44°34' E 037°55'0 0.0
2017-Oct-13 14:00N 44°34' E 037°55'0 0.0
2017-Oct-13 13:30N 44°34' E 037°55'0 0.0
2017-Oct-13 13:00N 44°34' E 037°55'0 0.0
2017-Oct-13 12:30N 44°34' E 037°55'0 0.0
2017-Oct-13 12:00N 44°34' E 037°55'0 0.0
2017-Oct-13 11:30N 44°34' E 037°55'0 0.0
2017-Oct-13 11:00N 44°34' E 037°55'0 0.0
2017-Oct-13 10:30N 44°34' E 037°55'0 0.0
2017-Oct-13 10:00N 44°34' E 037°55'0 0.0
2017-Oct-13 09:30N 44°34' E 037°55'0 0.0
2017-Oct-13 09:00N 44°34' E 037°55'0 0.0
2017-Oct-13 08:30N 44°34' E 037°55'0 0.0
2017-Oct-13 08:00N 44°34' E 037°55'0 0.0
2017-Oct-13 07:30N 44°34' E 037°55'0 0.0
2017-Oct-13 07:00N 44°34' E 037°55'0 0.0
2017-Oct-13 06:30N 44°34' E 037°55'0 0.0
2017-Oct-13 06:00N 44°34' E 037°55'0 0.0
2017-Oct-13 05:30N 44°34' E 037°55'0 0.0
2017-Oct-13 05:00N 44°34' E 037°55'0 0.1
2017-Oct-13 04:30N 44°34' E 037°55'0 0.0
2017-Oct-13 04:00N 44°34' E 037°55'0 0.0
2017-Oct-13 03:30N 44°34' E 037°55'0 0.0
2017-Oct-13 03:00N 44°34' E 037°55'0 0.0
2017-Oct-13 02:30N 44°34' E 037°55'0 0.0
2017-Oct-13 02:00N 44°34' E 037°55'0 0.0
2017-Oct-13 01:30N 44°34' E 037°55'0 0.0
2017-Oct-13 01:00N 44°34' E 037°55'0 0.0
2017-Oct-13 00:30N 44°34' E 037°55'0 0.0
2017-Oct-13 00:00N 44°34' E 037°55'0 0.0
2017-Oct-12 23:30N 44°34' E 037°55'0 0.0
2017-Oct-12 23:00N 44°34' E 037°55'0 0.0
2017-Oct-12 22:30N 44°34' E 037°55'0 0.0
2017-Oct-12 22:00N 44°34' E 037°55'0 0.0
2017-Oct-12 21:30N 44°34' E 037°55'0 0.0
2017-Oct-12 21:00N 44°34' E 037°55'0 0.0
2017-Oct-12 20:30N 44°34' E 037°55'0 0.0
2017-Oct-12 20:00N 44°34' E 037°55'0 0.0
2017-Oct-12 19:30N 44°34' E 037°55'0 0.0
2017-Oct-12 18:57N 44°34' E 037°55'0 0.0
2017-Oct-12 18:30N 44°34' E 037°55'0 0.1
2017-Oct-12 18:00N 44°34' E 037°55'0 0.0
2017-Oct-12 17:30N 44°34' E 037°55'0 0.0
2017-Oct-12 17:00N 44°34' E 037°55'0 0.0
2017-Oct-12 16:30N 44°34' E 037°55'0 0.0
2017-Oct-12 16:00N 44°34' E 037°55'0 0.0
2017-Oct-12 15:30N 44°34' E 037°55'0 0.0
2017-Oct-12 15:00N 44°34' E 037°55'0 0.0
2017-Oct-12 14:30N 44°34' E 037°55'0 0.0
2017-Oct-12 14:00N 44°34' E 037°55'0 0.1
2017-Oct-12 13:30N 44°34' E 037°55'0 0.0
2017-Oct-12 13:00N 44°34' E 037°55'0 0.0
2017-Oct-12 12:30N 44°34' E 037°55'0 0.0
2017-Oct-12 11:54N 44°34' E 037°55'0 0.0
2017-Oct-12 11:30N 44°34' E 037°55'0 0.0
2017-Oct-12 11:00N 44°34' E 037°55'0 0.0
2017-Oct-12 10:30N 44°34' E 037°55'0 0.1
2017-Oct-12 10:00N 44°34' E 037°55'0 0.0
2017-Oct-12 09:30N 44°34' E 037°55'0 0.1
2017-Oct-12 09:00N 44°34' E 037°55'0 0.0
2017-Oct-12 08:30N 44°34' E 037°55'0 0.0
2017-Oct-12 08:00N 44°34' E 037°55'0 0.0
2017-Oct-12 07:30N 44°34' E 037°55'0 0.0
2017-Oct-12 07:00N 44°34' E 037°55'0 0.0
2017-Oct-12 06:30N 44°34' E 037°55'0 0.0
2017-Oct-12 06:00N 44°34' E 037°55'0 0.1
2017-Oct-12 05:30N 44°34' E 037°55'0 0.1
2017-Oct-12 05:00N 44°34' E 037°55'0 0.0
2017-Oct-12 04:30N 44°34' E 037°55'0 0.0
2017-Oct-12 04:00N 44°34' E 037°55'0 0.1
2017-Oct-12 03:30N 44°34' E 037°55'0 0.1
2017-Oct-12 03:00N 44°34' E 037°55'0 0.2
2017-Oct-12 02:30N 44°34' E 037°55'0 0.0
2017-Oct-12 02:00N 44°34' E 037°55'0 0.1
2017-Oct-12 01:27N 44°34' E 037°55'0 0.1
2017-Oct-12 01:00N 44°34' E 037°55'0 0.0
2017-Oct-12 00:30N 44°34' E 037°55'0 0.0
2017-Oct-12 00:00N 44°34' E 037°55'0 0.0
2017-Oct-11 23:30N 44°34' E 037°55'0 0.0
2017-Oct-11 23:00N 44°34' E 037°55'0 0.0
2017-Oct-11 22:30N 44°34' E 037°55'0 0.1
2017-Oct-11 22:00N 44°34' E 037°55'0 0.0
2017-Oct-11 21:30N 44°34' E 037°55'0 0.0
2017-Oct-11 21:00N 44°34' E 037°55'0 0.0
2017-Oct-11 20:30N 44°34' E 037°55'0 0.1
2017-Oct-11 20:00N 44°34' E 037°55'0 0.0
2017-Oct-11 19:30N 44°34' E 037°55'0 0.0
2017-Oct-11 19:00N 44°34' E 037°55'0 0.0
2017-Oct-11 18:30N 44°34' E 037°55'0 0.0
2017-Oct-11 18:00N 44°34' E 037°55'0 0.0
2017-Oct-11 17:30N 44°34' E 037°55'0 0.0
2017-Oct-11 17:00N 44°34' E 037°55'0 0.0
2017-Oct-11 00:00N 44°34' E 037°55'0 0.0
2017-Oct-10 23:30N 44°34' E 037°55'0 0.1
2017-Oct-10 23:00N 44°33' E 037°55'0 0.1
2017-Oct-10 22:30N 44°33' E 037°55'0 0.1
2017-Oct-10 22:00N 44°33' E 037°55'0 0.0
2017-Oct-10 21:30N 44°33' E 037°55'0 0.0
2017-Oct-10 21:00N 44°33' E 037°55'0 0.0
2017-Oct-10 20:30N 44°33' E 037°55'0 0.0
2017-Oct-10 20:00N 44°33' E 037°55'0 0.0
2017-Oct-10 19:30N 44°33' E 037°55'  
Track history (hours):
 
Tides and Currents Weather Stations Pressure Air Temp Water Temp Dewpoint Dewpoint Depression Visibility Wind Speed Wind Dir Waves Ship Positions

Golden Trader I

Last reported at 2017-Oct-20 19:30 UTC. Time now 2017-Oct-20 19:33 UTC.
Position N 44°43' E 037°49'.

Length 229 m; draft 7.5 m.

Type: Cargo ship. MMSI: 548855000.

Date/timePositionNaut miles runAvg speedWind from/ knotsBaromVisibWave heightAir tempDewpointWater temp
2017-Oct-20 19:30N 44°43' E 037°49'0 0.0
2017-Oct-20 19:00N 44°43' E 037°49'0 0.0
2017-Oct-20 18:30N 44°43' E 037°49'0 0.0
2017-Oct-20 18:00N 44°43' E 037°49'0 0.0
2017-Oct-20 17:30N 44°43' E 037°49'0 0.0
2017-Oct-20 17:00N 44°43' E 037°49'0 0.0
2017-Oct-20 16:30N 44°43' E 037°49'1 1.5
2017-Oct-20 16:00N 44°43' E 037°49'4 7.6
2017-Oct-20 15:30N 44°39' E 037°51'2 3.7
2017-Oct-20 15:00N 44°37' E 037°52'1 1.7
2017-Oct-20 14:30N 44°36' E 037°52'3 3.4
2017-Oct-20 13:28N 44°34' E 037°55'0 0.0
2017-Oct-20 12:58N 44°34' E 037°55'0 0.0
2017-Oct-20 12:28N 44°34' E 037°55'0 0.0
2017-Oct-20 11:55N 44°34' E 037°55'0 0.1
2017-Oct-20 11:22N 44°34' E 037°55'0 0.1
2017-Oct-20 10:55N 44°34' E 037°55'0 0.0
2017-Oct-20 10:25N 44°34' E 037°55'0 0.0
2017-Oct-20 09:58N 44°34' E 037°55'0 0.0
2017-Oct-20 09:28N 44°34' E 037°55'0 0.1
2017-Oct-20 08:58N 44°34' E 037°55'0 0.0
2017-Oct-20 08:28N 44°34' E 037°55'0 0.0
2017-Oct-20 07:58N 44°34' E 037°55'0 0.0
2017-Oct-20 07:28N 44°34' E 037°55'0 0.0
2017-Oct-20 06:58N 44°34' E 037°55'0 0.0
2017-Oct-20 06:28N 44°34' E 037°55'0 0.0
2017-Oct-20 05:58N 44°34' E 037°55'0 0.0
2017-Oct-20 05:28N 44°34' E 037°55'0 0.0
2017-Oct-20 04:58N 44°34' E 037°55'0 0.0
2017-Oct-20 04:28N 44°34' E 037°55'0 0.0
2017-Oct-20 03:58N 44°34' E 037°55'0 0.0
2017-Oct-20 03:28N 44°34' E 037°55'0 0.0
2017-Oct-20 02:52N 44°34' E 037°55'0 0.1
2017-Oct-20 02:28N 44°34' E 037°55'0 0.0
2017-Oct-20 01:52N 44°34' E 037°55'0 0.0
2017-Oct-20 01:28N 44°34' E 037°55'0 0.0
2017-Oct-20 00:58N 44°34' E 037°55'0 0.0
2017-Oct-20 00:28N 44°34' E 037°55'0 0.0
2017-Oct-19 23:58N 44°34' E 037°55'0 0.0
2017-Oct-19 23:28N 44°34' E 037°55'0 0.0
2017-Oct-19 22:58N 44°34' E 037°55'0 0.0
2017-Oct-19 22:25N 44°34' E 037°55'0 0.0
2017-Oct-19 21:58N 44°34' E 037°55'0 0.0
2017-Oct-19 21:28N 44°34' E 037°55'0 0.0
2017-Oct-19 20:58N 44°34' E 037°55'0 0.0
2017-Oct-19 20:28N 44°34' E 037°55'0 0.0
2017-Oct-19 19:58N 44°34' E 037°55'0 0.0
2017-Oct-19 19:28N 44°34' E 037°55'0 0.0
2017-Oct-19 18:58N 44°34' E 037°55'0 0.0
2017-Oct-19 18:28N 44°34' E 037°55'0 0.0
2017-Oct-19 17:58N 44°34' E 037°55'0 0.0
2017-Oct-19 17:28N 44°34' E 037°55'0 0.0
2017-Oct-19 16:55N 44°34' E 037°55'0 0.0
2017-Oct-19 16:28N 44°34' E 037°55'0 0.0
2017-Oct-19 15:52N 44°34' E 037°55'0 0.0
2017-Oct-19 15:28N 44°34' E 037°55'0 0.0
2017-Oct-19 14:58N 44°34' E 037°55'0 0.1
2017-Oct-19 14:28N 44°34' E 037°55'0 0.0
2017-Oct-19 13:58N 44°34' E 037°55'0 0.0
2017-Oct-19 13:28N 44°34' E 037°55'0 0.0
2017-Oct-19 12:58N 44°34' E 037°55'0 0.0
2017-Oct-19 12:28N 44°34' E 037°55'0 0.0
2017-Oct-19 11:58N 44°34' E 037°55'0 0.0
2017-Oct-19 11:28N 44°34' E 037°55'0 0.0
2017-Oct-19 10:58N 44°34' E 037°55'0 0.0
2017-Oct-19 10:28N 44°34' E 037°55'0 0.0
2017-Oct-19 09:55N 44°34' E 037°55'0 0.0
2017-Oct-19 09:28N 44°34' E 037°55'0 0.0
2017-Oct-19 08:58N 44°34' E 037°55'0 0.0
2017-Oct-19 08:28N 44°34' E 037°55'0 0.0
2017-Oct-19 07:58N 44°34' E 037°55'0 0.0
2017-Oct-19 07:28N 44°34' E 037°55'0 0.0
2017-Oct-19 06:58N 44°34' E 037°55'0 0.0
2017-Oct-19 06:28N 44°34' E 037°55'0 0.0
2017-Oct-19 05:58N 44°34' E 037°55'0 0.0
2017-Oct-19 05:28N 44°34' E 037°55'0 0.0
2017-Oct-19 04:58N 44°34' E 037°55'0 0.0
2017-Oct-19 04:28N 44°34' E 037°55'0 0.0
2017-Oct-19 03:28N 44°34' E 037°55'0 0.0
2017-Oct-19 02:58N 44°34' E 037°55'0 0.0
2017-Oct-19 02:28N 44°34' E 037°55'0 0.0
2017-Oct-19 01:58N 44°34' E 037°55'0 0.0
2017-Oct-19 01:28N 44°34' E 037°55'0 0.0
2017-Oct-19 00:58N 44°34' E 037°55'0 0.0
2017-Oct-19 00:28N 44°34' E 037°55'0 0.0
2017-Oct-18 23:25N 44°34' E 037°55'0 0.0
2017-Oct-18 22:58N 44°34' E 037°55'0 0.0
2017-Oct-18 22:28N 44°34' E 037°55'0 0.0
2017-Oct-18 21:58N 44°34' E 037°55'0 0.0
2017-Oct-18 21:28N 44°34' E 037°55'0 0.0
2017-Oct-18 20:55N 44°34' E 037°55'0 0.0
2017-Oct-18 20:28N 44°34' E 037°55'0 0.0
2017-Oct-18 19:58N 44°34' E 037°55'0 0.0
2017-Oct-18 19:28N 44°34' E 037°55'0 0.1
2017-Oct-18 18:58N 44°34' E 037°55'0 0.0
2017-Oct-18 18:25N 44°34' E 037°55'0 0.0
2017-Oct-18 17:58N 44°34' E 037°55'0 0.0
2017-Oct-18 17:28N 44°34' E 037°55'0 0.0
2017-Oct-18 16:58N 44°34' E 037°55'0 0.0
2017-Oct-18 16:28N 44°34' E 037°55'0 0.0
2017-Oct-18 15:58N 44°34' E 037°55'0 0.1
2017-Oct-18 15:28N 44°34' E 037°55'0 0.0
2017-Oct-18 13:58N 44°34' E 037°55'0 0.0
2017-Oct-18 13:28N 44°34' E 037°55'0 0.0
2017-Oct-18 12:58N 44°34' E 037°55'0 0.0
2017-Oct-18 12:28N 44°34' E 037°55'0 0.0
2017-Oct-18 11:58N 44°34' E 037°55'0 0.0
2017-Oct-18 11:28N 44°34' E 037°55'0 0.0
2017-Oct-18 10:58N 44°34' E 037°55'0 0.0
2017-Oct-18 10:28N 44°34' E 037°55'0 0.0
2017-Oct-18 09:58N 44°34' E 037°55'0 0.0
2017-Oct-18 09:28N 44°34' E 037°55'0 0.0
2017-Oct-18 08:58N 44°34' E 037°55'0 0.0
2017-Oct-18 08:28N 44°34' E 037°55'0 0.1
2017-Oct-18 07:58N 44°34' E 037°55'0 0.0
2017-Oct-18 07:28N 44°34' E 037°55'0 0.0
2017-Oct-18 06:58N 44°34' E 037°55'0 0.0
2017-Oct-18 06:28N 44°34' E 037°55'0 0.0
2017-Oct-18 05:55N 44°34' E 037°55'0 0.0
2017-Oct-18 05:28N 44°34' E 037°55'0 0.0
2017-Oct-18 04:58N 44°34' E 037°55'0 0.1
2017-Oct-18 04:28N 44°34' E 037°55'0 0.1
2017-Oct-18 03:58N 44°34' E 037°55'0 0.0
2017-Oct-18 03:28N 44°34' E 037°55'0 0.0
2017-Oct-18 02:58N 44°34' E 037°55'0 0.0
2017-Oct-18 02:28N 44°34' E 037°55'0 0.0
2017-Oct-18 01:58N 44°34' E 037°55'0 0.1
2017-Oct-18 01:28N 44°34' E 037°55'0 0.0
2017-Oct-18 00:58N 44°34' E 037°55'0 0.1
2017-Oct-18 00:28N 44°34' E 037°55'0 0.1
2017-Oct-17 23:58N 44°34' E 037°55'0 0.0
2017-Oct-17 23:28N 44°34' E 037°55'0 0.0
2017-Oct-17 22:58N 44°34' E 037°55'0 0.1
2017-Oct-17 22:28N 44°34' E 037°55'0 0.1
2017-Oct-17 21:58N 44°34' E 037°55'0 0.1
2017-Oct-17 21:28N 44°34' E 037°55'0 0.0
2017-Oct-17 20:58N 44°34' E 037°55'0 0.0
2017-Oct-17 20:28N 44°34' E 037°55'0 0.0
2017-Oct-17 19:58N 44°34' E 037°55'0 0.1
2017-Oct-17 19:28N 44°34' E 037°55'0 0.0
2017-Oct-17 18:58N 44°34' E 037°55'0 0.0
2017-Oct-17 18:28N 44°34' E 037°55'0 0.0
2017-Oct-17 17:58N 44°34' E 037°55'0 0.0
2017-Oct-17 17:28N 44°34' E 037°55'0 0.0
2017-Oct-17 16:58N 44°34' E 037°55'0 0.1
2017-Oct-17 16:28N 44°34' E 037°55'0 0.1
2017-Oct-17 15:58N 44°34' E 037°55'0 0.1
2017-Oct-17 15:28N 44°34' E 037°55'0 0.0
2017-Oct-17 14:58N 44°34' E 037°55'0 0.0
2017-Oct-17 14:28N 44°34' E 037°55'0 0.0
2017-Oct-17 13:58N 44°34' E 037°55'0 0.0
2017-Oct-17 13:28N 44°34' E 037°55'0 0.0
2017-Oct-17 12:58N 44°34' E 037°55'0 0.0
2017-Oct-17 12:28N 44°34' E 037°55'0 0.0
2017-Oct-17 11:58N 44°34' E 037°55'0 0.1
2017-Oct-17 11:28N 44°34' E 037°55'0 0.0
2017-Oct-17 10:58N 44°34' E 037°55'0 0.1
2017-Oct-17 10:28N 44°34' E 037°55'0 0.0
2017-Oct-17 09:58N 44°34' E 037°55'0 0.0
2017-Oct-17 09:28N 44°34' E 037°55'0 0.1
2017-Oct-17 08:58N 44°34' E 037°55'0 0.1
2017-Oct-17 08:28N 44°33' E 037°55'0 0.0
2017-Oct-17 07:58N 44°33' E 037°55'0 0.1
2017-Oct-17 07:28N 44°34' E 037°55'0 0.0
2017-Oct-17 06:58N 44°34' E 037°55'0 0.0
2017-Oct-17 06:28N 44°34' E 037°55'0 0.0
2017-Oct-17 05:58N 44°34' E 037°55'0 0.0
2017-Oct-17 05:28N 44°34' E 037°55'0 0.0
2017-Oct-17 04:58N 44°34' E 037°55'0 0.0
2017-Oct-17 04:28N 44°34' E 037°55'0 0.0
2017-Oct-17 03:58N 44°34' E 037°55'0 0.1
2017-Oct-17 03:16N 44°34' E 037°55'0 0.1
2017-Oct-17 02:58N 44°34' E 037°55'0 0.0
2017-Oct-17 02:28N 44°34' E 037°55'0 0.0
2017-Oct-17 01:58N 44°34' E 037°55'0 0.0
2017-Oct-17 01:28N 44°34' E 037°55'0 0.1
2017-Oct-17 00:58N 44°33' E 037°55'0 0.0
2017-Oct-17 00:28N 44°33' E 037°55'0 0.0
2017-Oct-16 23:58N 44°34' E 037°55'0 0.0
2017-Oct-16 23:28N 44°34' E 037°55'0 0.0
2017-Oct-16 22:58N 44°34' E 037°55'0 0.0
2017-Oct-16 22:28N 44°34' E 037°55'0 0.1
2017-Oct-16 21:58N 44°34' E 037°55'0 0.0
2017-Oct-16 21:28N 44°34' E 037°55'0 0.0
2017-Oct-16 20:58N 44°34' E 037°55'0 0.0
2017-Oct-16 20:28N 44°34' E 037°55'0 0.0
2017-Oct-16 19:55N 44°34' E 037°55'0 0.0
2017-Oct-16 19:28N 44°34' E 037°55'0 0.0
2017-Oct-16 18:58N 44°34' E 037°55'0 0.0
2017-Oct-16 18:07N 44°34' E 037°55'0 0.1
2017-Oct-16 17:58N 44°34' E 037°55'0 0.0
2017-Oct-16 17:28N 44°34' E 037°55'0 0.0
2017-Oct-16 16:58N 44°33' E 037°55'0 0.0
2017-Oct-16 16:28N 44°34' E 037°55'0 0.0
2017-Oct-16 15:58N 44°34' E 037°55'0 0.1
2017-Oct-16 15:28N 44°33' E 037°55'0 0.0
2017-Oct-16 14:58N 44°33' E 037°55'0 0.0
2017-Oct-16 14:28N 44°33' E 037°55'0 0.0
2017-Oct-16 13:28N 44°33' E 037°55'0 0.0
2017-Oct-16 12:58N 44°33' E 037°55'0 0.0
2017-Oct-16 12:28N 44°33' E 037°55'0 0.0
2017-Oct-16 11:58N 44°33' E 037°55'0 0.1
2017-Oct-16 11:28N 44°33' E 037°55'0 0.1
2017-Oct-16 10:58N 44°33' E 037°55'0 0.0
2017-Oct-16 10:28N 44°33' E 037°55'0 0.0
2017-Oct-16 09:58N 44°33' E 037°55'0 0.0
2017-Oct-16 09:28N 44°33' E 037°55'0 0.1
2017-Oct-16 08:58N 44°33' E 037°55'0 0.1
2017-Oct-16 08:28N 44°33' E 037°55'0 0.1
2017-Oct-16 07:58N 44°33' E 037°55'0 0.0
2017-Oct-16 07:28N 44°33' E 037°55'0 0.0
2017-Oct-16 06:58N 44°33' E 037°55'0 0.1
2017-Oct-16 06:28N 44°33' E 037°55'0 0.0
2017-Oct-16 05:58N 44°33' E 037°55'0 0.0
2017-Oct-16 05:28N 44°33' E 037°55'0 0.1
2017-Oct-16 04:58N 44°33' E 037°55'0 0.0
2017-Oct-16 04:28N 44°33' E 037°55'0 0.0
2017-Oct-16 03:58N 44°33' E 037°55'0 0.0
2017-Oct-16 03:28N 44°33' E 037°55'0 0.0
2017-Oct-16 02:58N 44°33' E 037°55'0 0.0
2017-Oct-16 02:28N 44°33' E 037°55'0 0.0
2017-Oct-16 01:58N 44°33' E 037°55'0 0.1
2017-Oct-16 01:28N 44°33' E 037°55'0 0.0
2017-Oct-16 00:58N 44°33' E 037°55'0 0.1
2017-Oct-16 00:28N 44°33' E 037°55'0 0.1
2017-Oct-15 23:55N 44°34' E 037°55'0 0.1
2017-Oct-15 23:28N 44°33' E 037°55'0 0.0
2017-Oct-15 22:58N 44°34' E 037°55'0 0.1
2017-Oct-15 22:28N 44°34' E 037°55'0 0.1
2017-Oct-15 21:58N 44°34' E 037°55'0 0.1
2017-Oct-15 21:25N 44°34' E 037°55'0 0.0
2017-Oct-15 20:58N 44°34' E 037°55'0 0.1
2017-Oct-15 20:25N 44°34' E 037°55'0 0.0
2017-Oct-15 19:55N 44°34' E 037°55'0 0.1
2017-Oct-15 19:28N 44°34' E 037°55'0 0.0
2017-Oct-15 18:58N 44°34' E 037°55'0 0.0
2017-Oct-15 18:28N 44°34' E 037°55'0 0.1
2017-Oct-15 17:58N 44°34' E 037°55'0 0.0
2017-Oct-15 17:28N 44°34' E 037°55'0 0.1
2017-Oct-15 16:58N 44°34' E 037°55'0 0.0
2017-Oct-15 16:28N 44°34' E 037°55'0 0.1
2017-Oct-15 15:58N 44°34' E 037°55'0 0.1
2017-Oct-15 15:28N 44°34' E 037°55'0 0.1
2017-Oct-15 14:58N 44°34' E 037°55'0 0.0
2017-Oct-15 13:58N 44°34' E 037°55'0 0.1
2017-Oct-15 13:28N 44°34' E 037°55'0 0.0
2017-Oct-15 12:58N 44°34' E 037°55'0 0.0
2017-Oct-15 12:28N 44°34' E 037°55'0 0.0
2017-Oct-15 11:58N 44°34' E 037°55'0 0.0
2017-Oct-15 11:28N 44°34' E 037°55'0 0.0
2017-Oct-15 10:58N 44°34' E 037°55'0 0.1
2017-Oct-15 10:28N 44°34' E 037°55'0 0.0
2017-Oct-15 09:58N 44°34' E 037°55'0 0.0
2017-Oct-15 09:28N 44°34' E 037°55'0 0.1
2017-Oct-15 08:58N 44°33' E 037°55'0 0.0
2017-Oct-15 08:28N 44°33' E 037°55'0 0.0
2017-Oct-15 07:58N 44°33' E 037°55'0 0.0
2017-Oct-15 07:28N 44°33' E 037°55'0 0.0
2017-Oct-15 06:58N 44°33' E 037°55'0 0.0
2017-Oct-15 06:28N 44°33' E 037°55'0 0.0
2017-Oct-15 05:58N 44°33' E 037°55'0 0.1
2017-Oct-15 05:28N 44°33' E 037°55'0 0.0
2017-Oct-15 04:58N 44°33' E 037°55'0 0.0
2017-Oct-15 04:28N 44°33' E 037°55'0 0.0
2017-Oct-15 03:58N 44°33' E 037°55'0 0.0
2017-Oct-15 03:28N 44°33' E 037°55'0 0.0
2017-Oct-15 02:58N 44°33' E 037°55'0 0.1
2017-Oct-15 02:31N 44°33' E 037°55'0 0.0
2017-Oct-15 01:58N 44°33' E 037°55'0 0.1
2017-Oct-15 01:28N 44°33' E 037°55'0 0.1
2017-Oct-15 00:58N 44°34' E 037°55'0 0.0
2017-Oct-15 00:28N 44°34' E 037°55'0 0.1
2017-Oct-14 23:58N 44°33' E 037°55'0 0.1
2017-Oct-14 23:28N 44°34' E 037°55'0 0.0
2017-Oct-14 23:01N 44°34' E 037°55'0 0.0
2017-Oct-14 22:28N 44°34' E 037°55'0 0.0
2017-Oct-14 21:58N 44°34' E 037°55'0 0.0
2017-Oct-14 21:25N 44°34' E 037°55'0 0.1
2017-Oct-14 20:46N 44°34' E 037°55'0 0.0
2017-Oct-14 20:28N 44°34' E 037°55'0 0.0
2017-Oct-14 19:54N 44°34' E 037°55'0 0.1
2017-Oct-14 19:25N 44°34' E 037°55'0 0.1
2017-Oct-14 18:58N 44°34' E 037°55'0 0.1
2017-Oct-14 18:28N 44°34' E 037°55'0 0.1
2017-Oct-14 17:58N 44°34' E 037°55'0 0.0
2017-Oct-14 17:28N 44°34' E 037°55'0 0.0
2017-Oct-14 16:57N 44°34' E 037°55'0 0.0
2017-Oct-14 16:28N 44°34' E 037°55'0 0.0
2017-Oct-14 15:57N 44°34' E 037°55'0 0.1
2017-Oct-14 15:28N 44°33' E 037°55'0 0.0
2017-Oct-14 15:01N 44°33' E 037°55'0 0.1
2017-Oct-14 14:28N 44°34' E 037°55'0 0.0
2017-Oct-14 14:00N 44°34' E 037°55'0 0.0
2017-Oct-14 13:31N 44°34' E 037°55'0 0.0
2017-Oct-14 12:58N 44°34' E 037°55'0 0.1
2017-Oct-14 12:25N 44°34' E 037°55'0 0.1
2017-Oct-14 12:01N 44°34' E 037°55'0 0.0
2017-Oct-14 11:31N 44°34' E 037°55'0 0.0
2017-Oct-14 10:57N 44°34' E 037°55'0 0.0
2017-Oct-14 10:28N 44°34' E 037°55'0 0.0
2017-Oct-14 10:01N 44°34' E 037°55'0 0.0
2017-Oct-14 09:28N 44°34' E 037°55'0 0.0
2017-Oct-14 08:57N 44°34' E 037°55'0 0.0
2017-Oct-14 08:30N 44°34' E 037°55'0 0.1
2017-Oct-14 07:58N 44°34' E 037°55'0 0.2
2017-Oct-14 07:30N 44°34' E 037°55'0 0.0
2017-Oct-14 06:57N 44°34' E 037°55'0 0.0
2017-Oct-14 06:31N 44°34' E 037°55'0 0.1
2017-Oct-14 06:01N 44°34' E 037°55'0 0.0
2017-Oct-14 05:28N 44°34' E 037°55'0 0.1
2017-Oct-14 05:01N 44°34' E 037°55'0 0.0
2017-Oct-14 04:30N 44°34' E 037°55'0 0.0
2017-Oct-14 04:00N 44°34' E 037°55'0 0.0
2017-Oct-14 03:30N 44°34' E 037°55'0 0.2
2017-Oct-14 03:00N 44°34' E 037°55'0 0.1
2017-Oct-14 02:27N 44°34' E 037°55'0 0.1
2017-Oct-14 02:00N 44°34' E 037°55'0 0.1
2017-Oct-14 01:27N 44°34' E 037°55'0 0.1
2017-Oct-14 01:00N 44°34' E 037°55'0 0.1
2017-Oct-14 00:30N 44°34' E 037°55'0 0.0
2017-Oct-14 00:00N 44°34' E 037°55'0 0.0
2017-Oct-13 23:31N 44°34' E 037°55'0 0.1
2017-Oct-13 23:00N 44°34' E 037°55'0 0.0
2017-Oct-13 22:30N 44°34' E 037°55'0 0.1
2017-Oct-13 22:00N 44°34' E 037°55'0 0.1
2017-Oct-13 21:30N 44°34' E 037°55'0 0.1
2017-Oct-13 21:00N 44°34' E 037°55'0 0.0
2017-Oct-13 20:30N 44°34' E 037°55'0 0.0
2017-Oct-13 20:00N 44°34' E 037°55'0 0.1
2017-Oct-13 19:30N 44°34' E 037°55'0 0.0
2017-Oct-13 19:00N 44°34' E 037°55'0 0.0
2017-Oct-13 18:30N 44°34' E 037°55'0 0.0
2017-Oct-13 18:00N 44°34' E 037°55'0 0.0
2017-Oct-13 17:30N 44°34' E 037°55'0 0.0
2017-Oct-13 16:27N 44°34' E 037°55'0 0.0
2017-Oct-13 16:00N 44°34' E 037°55'0 0.0
2017-Oct-13 15:30N 44°34' E 037°55'0 0.0
2017-Oct-13 15:00N 44°34' E 037°55'0 0.0
2017-Oct-13 14:30N 44°34' E 037°55'0 0.0
2017-Oct-13 14:00N 44°34' E 037°55'0 0.0
2017-Oct-13 13:30N 44°34' E 037°55'0 0.0
2017-Oct-13 13:00N 44°34' E 037°55'0 0.0
2017-Oct-13 12:30N 44°34' E 037°55'0 0.0
2017-Oct-13 12:00N 44°34' E 037°55'0 0.0
2017-Oct-13 11:30N 44°34' E 037°55'0 0.0
2017-Oct-13 11:00N 44°34' E 037°55'0 0.0
2017-Oct-13 10:30N 44°34' E 037°55'0 0.0
2017-Oct-13 10:00N 44°34' E 037°55'0 0.0
2017-Oct-13 09:30N 44°34' E 037°55'0 0.0
2017-Oct-13 09:00N 44°34' E 037°55'0 0.0
2017-Oct-13 08:30N 44°34' E 037°55'0 0.0
2017-Oct-13 08:00N 44°34' E 037°55'0 0.0
2017-Oct-13 07:30N 44°34' E 037°55'0 0.0
2017-Oct-13 07:00N 44°34' E 037°55'0 0.0
2017-Oct-13 06:30N 44°34' E 037°55'0 0.0
2017-Oct-13 06:00N 44°34' E 037°55'0 0.0
2017-Oct-13 05:30N 44°34' E 037°55'0 0.0
2017-Oct-13 05:00N 44°34' E 037°55'0 0.1
2017-Oct-13 04:30N 44°34' E 037°55'0 0.0
2017-Oct-13 04:00N 44°34' E 037°55'0 0.0
2017-Oct-13 03:30N 44°34' E 037°55'0 0.0
2017-Oct-13 03:00N 44°34' E 037°55'0 0.0
2017-Oct-13 02:30N 44°34' E 037°55'0 0.0
2017-Oct-13 02:00N 44°34' E 037°55'0 0.0
2017-Oct-13 01:30N 44°34' E 037°55'0 0.0
2017-Oct-13 01:00N 44°34' E 037°55'0 0.0
2017-Oct-13 00:30N 44°34' E 037°55'0 0.0
2017-Oct-13 00:00N 44°34' E 037°55'0 0.0
2017-Oct-12 23:30N 44°34' E 037°55'0 0.0
2017-Oct-12 23:00N 44°34' E 037°55'0 0.0
2017-Oct-12 22:30N 44°34' E 037°55'0 0.0
2017-Oct-12 22:00N 44°34' E 037°55'0 0.0
2017-Oct-12 21:30N 44°34' E 037°55'0 0.0
2017-Oct-12 21:00N 44°34' E 037°55'0 0.0
2017-Oct-12 20:30N 44°34' E 037°55'0 0.0
2017-Oct-12 20:00N 44°34' E 037°55'0 0.0
2017-Oct-12 19:30N 44°34' E 037°55'0 0.0
2017-Oct-12 18:57N 44°34' E 037°55'0 0.0
2017-Oct-12 18:30N 44°34' E 037°55'0 0.1
2017-Oct-12 18:00N 44°34' E 037°55'0 0.0
2017-Oct-12 17:30N 44°34' E 037°55'0 0.0
2017-Oct-12 17:00N 44°34' E 037°55'0 0.0
2017-Oct-12 16:30N 44°34' E 037°55'0 0.0
2017-Oct-12 16:00N 44°34' E 037°55'0 0.0
2017-Oct-12 15:30N 44°34' E 037°55'0 0.0
2017-Oct-12 15:00N 44°34' E 037°55'0 0.0
2017-Oct-12 14:30N 44°34' E 037°55'0 0.0
2017-Oct-12 14:00N 44°34' E 037°55'0 0.1
2017-Oct-12 13:30N 44°34' E 037°55'0 0.0
2017-Oct-12 13:00N 44°34' E 037°55'0 0.0
2017-Oct-12 12:30N 44°34' E 037°55'0 0.0
2017-Oct-12 11:54N 44°34' E 037°55'0 0.0
2017-Oct-12 11:30N 44°34' E 037°55'0 0.0
2017-Oct-12 11:00N 44°34' E 037°55'0 0.0
2017-Oct-12 10:30N 44°34' E 037°55'0 0.1
2017-Oct-12 10:00N 44°34' E 037°55'0 0.0
2017-Oct-12 09:30N 44°34' E 037°55'0 0.1
2017-Oct-12 09:00N 44°34' E 037°55'0 0.0
2017-Oct-12 08:30N 44°34' E 037°55'0 0.0
2017-Oct-12 08:00N 44°34' E 037°55'0 0.0
2017-Oct-12 07:30N 44°34' E 037°55'0 0.0
2017-Oct-12 07:00N 44°34' E 037°55'0 0.0
2017-Oct-12 06:30N 44°34' E 037°55'0 0.0
2017-Oct-12 06:00N 44°34' E 037°55'0 0.1
2017-Oct-12 05:30N 44°34' E 037°55'0 0.1
2017-Oct-12 05:00N 44°34' E 037°55'0 0.0
2017-Oct-12 04:30N 44°34' E 037°55'0 0.0
2017-Oct-12 04:00N 44°34' E 037°55'0 0.1
2017-Oct-12 03:30N 44°34' E 037°55'0 0.1
2017-Oct-12 03:00N 44°34' E 037°55'0 0.2
2017-Oct-12 02:30N 44°34' E 037°55'0 0.0
2017-Oct-12 02:00N 44°34' E 037°55'0 0.1
2017-Oct-12 01:27N 44°34' E 037°55'0 0.1
2017-Oct-12 01:00N 44°34' E 037°55'0 0.0
2017-Oct-12 00:30N 44°34' E 037°55'0 0.0
2017-Oct-12 00:00N 44°34' E 037°55'0 0.0
2017-Oct-11 23:30N 44°34' E 037°55'0 0.0
2017-Oct-11 23:00N 44°34' E 037°55'0 0.0
2017-Oct-11 22:30N 44°34' E 037°55'0 0.1
2017-Oct-11 22:00N 44°34' E 037°55'0 0.0
2017-Oct-11 21:30N 44°34' E 037°55'0 0.0
2017-Oct-11 21:00N 44°34' E 037°55'0 0.0
2017-Oct-11 20:30N 44°34' E 037°55'0 0.1
2017-Oct-11 20:00N 44°34' E 037°55'0 0.0
2017-Oct-11 19:30N 44°34' E 037°55'0 0.0
2017-Oct-11 19:00N 44°34' E 037°55'0 0.0
2017-Oct-11 18:30N 44°34' E 037°55'0 0.0
2017-Oct-11 18:00N 44°34' E 037°55'0 0.0
2017-Oct-11 17:30N 44°34' E 037°55'0 0.0
2017-Oct-11 17:00N 44°34' E 037°55'0 0.0
2017-Oct-11 00:00N 44°34' E 037°55'0 0.0
2017-Oct-10 23:30N 44°34' E 037°55'0 0.1
2017-Oct-10 23:00N 44°33' E 037°55'0 0.1
2017-Oct-10 22:30N 44°33' E 037°55'0 0.1
2017-Oct-10 22:00N 44°33' E 037°55'0 0.0
2017-Oct-10 21:30N 44°33' E 037°55'0 0.0
2017-Oct-10 21:00N 44°33' E 037°55'0 0.0
2017-Oct-10 20:30N 44°33' E 037°55'0 0.0
2017-Oct-10 20:00N 44°33' E 037°55'0 0.0
2017-Oct-10 19:30N 44°33' E 037°55'  

Dump ship's entire track history